Time;durP1;ratioP1;P1;durP2;ratioP2;P2;SDS_P1;SDS_P2;PMS_P1;PMS_P2;Temp;Humidity;BMP_temperature;BMP_pressure;BME280_temperature;BME280_humidity;BME280_pressure;Samples;Min_cycle;Max_cycle;Signal;HPM_P1;HPM_P2
2021/05/17 00:02:21;;;;;;;;;;;;;;;7.46;84.46;94966.41;1674214;86;20460;-67
2021/05/17 00:04:49;;;;;;;;;;;;;;;7.36;84.57;94963.10;1674505;86;20178;-67
2021/05/17 00:07:16;;;;;;;;;;;;;;;7.27;85.13;94971.11;1674101;85;20475;-67
2021/05/17 00:09:43;;;;;;;;;;;;;;;7.22;84.93;94969.87;1673907;85;20506;-67
2021/05/17 00:12:10;;;;;;;;;;;;;;;7.23;84.98;94970.31;1674244;86;20154;-67
2021/05/17 00:14:37;;;;;;;;;;;;;;;7.22;84.77;94972.48;1674007;86;20166;-67
2021/05/17 00:17:05;;;;;;;;;;;;;;;7.22;84.49;94964.62;1674204;86;20194;-67
2021/05/17 00:19:33;;;;;;;;;;;;;;;7.29;84.15;94966.71;1674117;86;20182;-67
2021/05/17 00:22:00;;;;;;;;;;;;;;;7.28;83.79;94963.64;1679401;84;20142;-67
2021/05/17 00:24:27;;;;;;;;;;;;;;;7.35;83.78;94967.91;1694447;85;20222;-67
2021/05/17 00:26:53;;;;;;;;;;;;;;;7.33;83.36;94965.33;1694357;84;20472;-67
2021/05/17 00:29:20;;;;;;;;;;;;;;;7.24;83.52;94960.67;1694813;84;20253;-67
2021/05/17 00:31:47;;;;;;;;;;;;;;;7.21;83.64;94962.04;1694816;85;20487;-67
2021/05/17 00:34:14;;;;;;;;;;;;;;;7.13;83.95;94959.08;1694762;85;20206;-67
2021/05/17 00:36:41;;;;;;;;;;;;;;;7.14;83.94;94964.73;1694804;85;20484;-67
2021/05/17 00:39:10;;;;;;;;;;;;;;;7.21;83.67;94962.90;1694710;85;20246;-67
2021/05/17 00:41:38;;;;;;;;;;;;;;;7.10;83.24;94966.12;1694695;85;20182;-67
2021/05/17 00:44:05;;;;;;;;;;;;;;;7.11;83.17;94970.49;1694951;85;20246;-67
2021/05/17 00:46:33;;;;;;;;;;;;;;;7.13;83.27;94974.83;1694804;85;20516;-67
2021/05/17 00:49:00;;;;;;;;;;;;;;;7.23;83.14;94970.31;1694314;84;20147;-67
2021/05/17 00:51:27;;;;;;;;;;;;;;;7.10;82.83;94970.91;1694758;85;20531;-67
2021/05/17 00:53:54;;;;;;;;;;;;;;;7.04;82.90;94972.78;1660378;85;20162;-67
2021/05/17 00:56:21;;;;;;;;;;;;;;;7.04;82.65;94971.47;1694701;85;20182;-67
2021/05/17 00:58:49;;;;;;;;;;;;;;;7.02;82.78;94968.86;1661256;85;20555;-67
2021/05/17 01:01:17;;;;;;;;;;;;;;;6.90;82.53;94966.41;1694715;84;20154;-67
2021/05/17 01:03:44;;;;;;;;;;;;;;;6.84;83.03;94959.95;1694659;85;20483;-67
2021/05/17 01:06:17;;;;;;;;;;;;;;;6.76;82.60;94972.31;1694202;85;20222;-67
2021/05/17 01:08:50;;;;;;;;;;;;;;;6.76;83.08;94971.00;1694776;85;20167;-67
2021/05/17 01:11:17;;;;;;;;;;;;;;;6.71;83.06;94969.30;1694756;84;20154;-67
2021/05/17 01:13:45;;;;;;;;;;;;;;;6.71;83.11;94968.44;1694692;85;20178;-67
2021/05/17 01:16:11;;;;;;;;;;;;;;;6.66;83.14;94972.88;1694797;85;20158;-67
2021/05/17 01:18:41;;;;;;;;;;;;;;;6.58;83.01;94972.98;1694964;84;20187;-67
2021/05/17 01:21:09;;;;;;;;;;;;;;;6.55;83.45;94976.96;1694884;85;20495;-67
2021/05/17 01:23:45;;;;;;;;;;;;;;;6.55;83.55;94976.96;1694625;85;20159;-67
2021/05/17 01:26:13;;;;;;;;;;;;;;;6.54;83.22;94978.28;1694686;85;20226;-67
2021/05/17 01:28:40;;;;;;;;;;;;;;;6.54;82.82;94980.45;1694660;84;20166;-67
2021/05/17 01:31:09;;;;;;;;;;;;;;;6.44;82.33;94974.45;1694561;85;20202;-67
2021/05/17 01:33:39;;;;;;;;;;;;;;;6.38;82.56;94982.41;1694843;85;20186;-67
2021/05/17 01:36:07;;;;;;;;;;;;;;;6.24;82.50;94981.24;1694828;85;20154;-67
2021/05/17 01:38:35;;;;;;;;;;;;;;;6.20;83.06;94970.81;1694792;85;20187;-67
2021/05/17 01:41:05;;;;;;;;;;;;;;;6.09;82.92;94973.56;1694591;85;20166;-67
2021/05/17 01:43:33;;;;;;;;;;;;;;;6.06;82.88;94979.70;1660055;85;20511;-67
2021/05/17 01:46:01;;;;;;;;;;;;;;;6.01;83.41;94976.27;1694667;85;20222;-67
2021/05/17 01:48:29;;;;;;;;;;;;;;;5.88;83.55;94976.40;1694657;84;20527;-67
2021/05/17 01:50:56;;;;;;;;;;;;;;;5.82;83.49;94979.92;1694687;85;20246;-67
2021/05/17 01:53:23;;;;;;;;;;;;;;;5.79;83.94;94985.20;1694971;85;20151;-67
2021/05/17 01:55:50;;;;;;;;;;;;;;;5.69;84.57;94977.87;1660918;85;20203;-67
2021/05/17 01:58:22;;;;;;;;;;;;;;;5.63;84.82;94979.25;1694576;85;20483;-66
2021/05/17 02:00:50;;;;;;;;;;;;;;;5.54;85.26;94981.94;1694691;84;20135;-67
2021/05/17 02:03:16;;;;;;;;;;;;;;;5.50;85.48;94991.58;1694768;84;20222;-67
2021/05/17 02:05:46;;;;;;;;;;;;;;;5.54;85.95;94993.72;1694595;85;20155;-67
2021/05/17 02:08:13;;;;;;;;;;;;;;;5.53;85.93;94982.39;1694934;85;20134;-67
2021/05/17 02:10:40;;;;;;;;;;;;;;;5.49;85.81;94982.42;1661804;85;20158;-67
2021/05/17 02:13:08;;;;;;;;;;;;;;;5.52;85.88;94978.46;1694571;85;20178;-67
2021/05/17 02:15:36;;;;;;;;;;;;;;;5.56;85.77;94975.81;1694631;85;20516;-67
2021/05/17 02:18:06;;;;;;;;;;;;;;;5.58;85.21;94975.36;1694688;84;20170;-67
2021/05/17 02:20:36;;;;;;;;;;;;;;;5.65;85.64;94973.56;1694656;85;20231;-67
2021/05/17 02:23:04;;;;;;;;;;;;;;;5.76;85.82;94981.30;1694570;85;20186;-67
2021/05/17 02:25:31;;;;;;;;;;;;;;;5.82;85.64;94979.92;1694646;85;20166;-67
2021/05/17 02:28:00;;;;;;;;;;;;;;;5.79;84.97;94973.41;1694496;85;20158;-67
2021/05/17 02:30:28;;;;;;;;;;;;;;;5.86;84.63;94968.55;1694619;85;20492;-67
2021/05/17 02:32:55;;;;;;;;;;;;;;;5.85;84.21;94966.83;1694630;85;20159;-66
2021/05/17 02:35:26;;;;;;;;;;;;;;;5.85;84.18;94969.00;1693759;85;20183;-67
2021/05/17 02:37:53;;;;;;;;;;;;;;;5.78;84.13;94967.32;1694670;85;20492;-67
2021/05/17 02:40:21;;;;;;;;;;;;;;;5.73;83.93;94961.27;1694552;85;20199;-67
2021/05/17 02:42:49;;;;;;;;;;;;;;;5.63;84.41;94962.23;1694634;85;20190;-67
2021/05/17 02:45:20;;;;;;;;;;;;;;;5.59;84.50;94957.91;1694204;85;20174;-67
2021/05/17 02:47:47;;;;;;;;;;;;;;;5.60;84.45;94960.97;1694482;85;20131;-67
2021/05/17 02:50:15;;;;;;;;;;;;;;;5.61;84.70;94953.53;1694720;85;20498;-67
2021/05/17 02:52:47;;;;;;;;;;;;;;;5.68;84.24;94959.58;1694741;85;20226;-66
2021/05/17 02:55:13;;;;;;;;;;;;;;;5.71;84.07;94954.31;1694015;85;20154;-67
2021/05/17 02:57:45;;;;;;;;;;;;;;;5.79;83.87;94949.41;1660660;85;20234;-67
2021/05/17 03:00:22;;;;;;;;;;;;;;;5.83;83.51;94954.19;1695253;85;20142;-67
2021/05/17 03:03:05;;;;;;;;;;;;;;;5.83;83.41;94951.57;1694848;85;20218;-66
2021/05/17 03:05:40;;;;;;;;;;;;;;;5.90;83.35;94951.08;1687804;85;20479;-66
2021/05/17 03:08:13;;;;;;;;;;;;;;;5.79;83.60;94955.09;1659850;85;20153;-66
2021/05/17 03:10:42;;;;;;;;;;;;;;;5.81;83.62;94951.57;1694555;85;20134;-67
2021/05/17 03:13:12;;;;;;;;;;;;;;;5.92;83.47;94953.20;1660371;85;20238;-67
2021/05/17 03:15:40;;;;;;;;;;;;;;;5.99;83.32;94946.61;1694469;85;20502;-67
2021/05/17 03:18:07;;;;;;;;;;;;;;;5.97;82.76;94954.95;1694838;85;20150;-67
2021/05/17 03:20:34;;;;;;;;;;;;;;;5.91;82.76;94941.88;1694941;84;20162;-67
2021/05/17 03:23:13;;;;;;;;;;;;;;;5.86;82.47;94948.91;1694369;84;20222;-67
2021/05/17 03:25:42;;;;;;;;;;;;;;;5.86;82.57;94952.84;1693577;85;20190;-67
2021/05/17 03:28:09;;;;;;;;;;;;;;;5.90;83.34;94949.31;1693712;85;20154;-67
2021/05/17 03:30:35;;;;;;;;;;;;;;;5.84;83.15;94953.29;1694501;85;20185;-66
2021/05/17 03:33:02;;;;;;;;;;;;;;;5.78;83.69;94958.61;1694676;85;20175;-67
2021/05/17 03:35:28;;;;;;;;;;;;;;;5.81;83.69;94952.02;1694814;84;20202;-67
2021/05/17 03:37:55;;;;;;;;;;;;;;;5.77;84.27;94951.62;1694510;85;20130;-67
2021/05/17 03:40:22;;;;;;;;;;;;;;;5.78;84.50;94948.13;1694511;85;20151;-67
2021/05/17 03:42:48;;;;;;;;;;;;;;;5.77;84.98;94950.30;1694706;85;20158;-66
2021/05/17 03:45:15;;;;;;;;;;;;;;;5.81;85.08;94950.27;1694577;85;20210;-66
2021/05/17 03:47:43;;;;;;;;;;;;;;;5.83;85.00;94951.57;1694780;85;20150;-67
2021/05/17 03:50:11;;;;;;;;;;;;;;;5.89;85.24;94954.11;1694623;84;20167;-66
2021/05/17 03:52:38;;;;;;;;;;;;;;;5.94;85.79;94946.24;1694587;85;20174;-67
2021/05/17 03:55:06;;;;;;;;;;;;;;;5.99;85.31;94955.77;1694421;85;20162;-66
2021/05/17 03:57:32;;;;;;;;;;;;;;;6.07;85.23;94953.06;1694374;85;20636;-67
2021/05/17 03:59:58;;;;;;;;;;;;;;;6.14;85.79;94949.94;1694790;85;20242;-67
2021/05/17 04:02:25;;;;;;;;;;;;;;;6.22;86.10;94952.02;1694908;85;20175;-67
2021/05/17 04:13:19;;;;;;;;;;;;;;;6.49;85.87;94959.98;1694697;85;20159;-66
2021/05/17 04:15:45;;;;;;;;;;;;;;;6.58;86.06;94955.95;1694564;84;20467;-67
2021/05/17 04:18:12;;;;;;;;;;;;;;;6.66;86.29;94961.94;1694653;85;20166;-66
2021/05/17 04:20:39;;;;;;;;;;;;;;;6.73;86.18;94961.42;1694594;85;20203;-67
2021/05/17 04:23:06;;;;;;;;;;;;;;;6.80;86.47;94959.11;1689543;84;20150;-67
2021/05/17 04:25:32;;;;;;;;;;;;;;;6.88;86.51;94957.27;1673942;86;20150;-67
2021/05/17 04:27:59;;;;;;;;;;;;;;;6.97;86.95;94947.53;1674076;86;20162;-67
2021/05/17 04:30:25;;;;;;;;;;;;;;;7.05;86.50;94954.38;1674128;86;20153;-66
2021/05/17 04:32:52;;;;;;;;;;;;;;;7.17;86.15;94944.15;1674100;86;20179;-67
2021/05/17 04:35:18;;;;;;;;;;;;;;;7.32;85.59;94943.03;1674023;86;20171;-67
2021/05/17 04:37:44;;;;;;;;;;;;;;;7.40;85.50;94936.34;1674071;85;20170;-67
2021/05/17 04:40:12;;;;;;;;;;;;;;;7.53;85.37;94936.55;1673878;86;20150;-66
2021/05/17 04:42:41;;;;;;;;;;;;;;;7.65;85.63;94936.34;1674173;85;20527;-67
2021/05/17 04:45:08;;;;;;;;;;;;;;;7.77;85.04;94931.32;1673233;86;20269;-65
2021/05/17 04:47:34;;;;;;;;;;;;;;;7.89;84.81;94911.85;1701196;84;20178;-65
2021/05/17 04:50:02;;;;;;;;;;;;;;;8.04;84.81;94918.13;1702230;84;20158;-70
2021/05/17 04:52:28;;;;;;;;;;;;;;;8.16;84.43;94913.05;1702078;84;20170;-81
2021/05/17 04:54:55;;;;;;;;;;;;;;;8.28;84.82;94905.38;1702103;84;20162;-64
2021/05/17 04:57:22;;;;;;;;;;;;;;;8.46;84.29;94908.95;1702013;84;20193;-69
2021/05/17 04:59:48;;;;;;;;;;;;;;;8.61;83.96;94903.81;1700147;84;20245;-66
2021/05/17 05:02:15;;;;;;;;;;;;;;;8.79;83.76;94903.84;1690531;85;20187;-67
2021/05/17 05:04:41;;;;;;;;;;;;;;;9.00;83.69;94903.83;1690769;85;20234;-67
2021/05/17 05:07:08;;;;;;;;;;;;;;;9.18;83.40;94905.14;1690690;85;20504;-61
2021/05/17 05:09:35;;;;;;;;;;;;;;;9.35;82.91;94893.76;1690722;85;20491;-69
2021/05/17 05:12:01;;;;;;;;;;;;;;;9.50;82.25;94891.19;1690841;85;20142;-69
2021/05/17 05:14:28;;;;;;;;;;;;;;;9.67;82.30;94881.05;1690840;85;20174;-65
2021/05/17 05:16:54;;;;;;;;;;;;;;;9.79;81.63;94881.19;1690700;85;20150;-67
2021/05/17 05:19:21;;;;;;;;;;;;;;;9.93;81.49;94872.46;1690917;85;20171;-66
2021/05/17 05:21:48;;;;;;;;;;;;;;;10.08;81.05;94870.28;1690558;85;20223;-66
2021/05/17 05:24:14;;;;;;;;;;;;;;;10.26;80.45;94865.83;1711295;83;20497;-71
2021/05/17 05:26:53;;;;;;;;;;;;;;;10.37;79.24;94865.53;1696231;83;20180;-67
2021/05/17 05:29:23;;;;;;;;;;;;;;;10.48;79.43;94858.61;1724793;83;20152;-72
2021/05/17 05:34:17;;;;;;;;;;;;;;;10.64;77.89;94849.34;1724924;83;20504;-70
2021/05/17 05:36:43;;;;;;;;;;;;;;;10.67;77.46;94848.38;1724849;83;20156;-71
2021/05/17 05:39:10;;;;;;;;;;;;;;;10.80;77.89;94849.72;1725061;83;20186;-70
2021/05/17 05:41:36;;;;;;;;;;;;;;;10.95;77.95;94844.42;1724770;83;20161;-68
2021/05/17 05:44:04;;;;;;;;;;;;;;;11.07;78.05;94843.17;1724894;83;20168;-66
2021/05/17 05:46:30;;;;;;;;;;;;;;;11.20;77.76;94832.59;1724865;83;20493;-65
2021/05/17 05:48:57;;;;;;;;;;;;;;;11.32;76.74;94830.88;1724977;83;20183;-67
2021/05/17 05:51:28;;;;;;;;;;;;;;;11.45;77.28;94815.47;1724645;83;20517;-77
2021/05/17 05:53:55;;;;;;;;;;;;;;;11.61;76.69;94817.11;1724841;83;20152;-73
2021/05/17 05:56:21;;;;;;;;;;;;;;;11.68;74.43;94810.23;1724512;83;20188;-69
2021/05/17 05:58:48;;;;;;;;;;;;;;;11.81;74.94;94800.55;1724926;83;20145;-65
2021/05/17 06:01:15;;;;;;;;;;;;;;;11.97;75.33;94811.45;1714472;83;20186;-65
2021/05/17 06:03:41;;;;;;;;;;;;;;;12.06;74.56;94811.13;1701221;84;20162;-65
2021/05/17 06:06:08;;;;;;;;;;;;;;;12.10;74.86;94810.97;1702544;84;20162;-65
2021/05/17 06:08:36;;;;;;;;;;;;;;;12.16;72.91;94801.08;1702389;84;20515;-65
2021/05/17 06:11:03;;;;;;;;;;;;;;;12.24;73.43;94797.20;1702016;84;20530;-67
2021/05/17 06:13:30;;;;;;;;;;;;;;;12.36;73.02;94798.53;1702406;84;20139;-67
2021/05/17 06:15:58;;;;;;;;;;;;;;;12.48;73.41;94786.16;1702396;84;20158;-64
2021/05/17 06:18:25;;;;;;;;;;;;;;;12.60;72.86;94782.62;1702372;84;20178;-68
2021/05/17 06:20:54;;;;;;;;;;;;;;;12.73;71.91;94782.56;1702450;84;20150;-67
2021/05/17 06:23:20;;;;;;;;;;;;;;;12.84;71.71;94779.00;1701426;84;20207;-67
2021/05/17 06:25:47;;;;;;;;;;;;;;;12.94;72.12;94772.41;1692477;85;20162;-65
2021/05/17 06:28:14;;;;;;;;;;;;;;;13.11;72.05;94762.92;1692583;85;20162;-66
2021/05/17 06:30:47;;;;;;;;;;;;;;;13.32;71.54;94762.03;1692524;85;20508;-71
2021/05/17 06:33:15;;;;;;;;;;;;;;;13.49;69.77;94761.78;1692208;85;20162;-70
2021/05/17 06:35:46;;;;;;;;;;;;;;;13.69;70.47;94759.59;1692812;85;20186;-75
2021/05/17 06:38:13;;;;;;;;;;;;;;;13.85;69.95;94763.27;1692669;85;20155;-75
2021/05/17 06:40:40;;;;;;;;;;;;;;;14.07;68.87;94766.69;1692582;85;20198;-71
2021/05/17 06:43:07;;;;;;;;;;;;;;;14.22;67.15;94765.13;1692615;85;20510;-71
2021/05/17 06:45:34;;;;;;;;;;;;;;;14.36;65.30;94763.62;1692527;85;20491;-69
2021/05/17 06:48:01;;;;;;;;;;;;;;;14.52;65.89;94751.84;1692847;85;20182;-68
2021/05/17 06:50:27;;;;;;;;;;;;;;;14.66;65.78;94751.58;1692648;85;20139;-64
2021/05/17 06:52:54;;;;;;;;;;;;;;;14.83;64.67;94749.44;1692583;85;20530;-66
2021/05/17 06:55:24;;;;;;;;;;;;;;;14.92;63.33;94742.84;1692878;85;20162;-65
2021/05/17 07:02:56;;;;;;;;;;;;;;;15.15;61.56;94729.73;1697999;85;20139;-66
2021/05/17 07:05:23;;;;;;;;;;;;;;;15.27;62.15;94730.89;1698025;85;20158;-66
2021/05/17 07:13:17;;;;;;;;;;;;;;;15.49;57.34;94722.21;1698044;85;20158;-71
2021/05/17 07:15:45;;;;;;;;;;;;;;;15.63;60.78;94726.83;1697872;85;20261;-84
2021/05/17 07:18:11;;;;;;;;;;;;;;;15.73;60.41;94721.92;1698022;85;20135;-73
2021/05/17 07:25:56;;;;;;;;;;;;;;;16.03;59.30;94711.45;1698155;85;20142;-66
2021/05/17 07:28:22;;;;;;;;;;;;;;;16.16;55.97;94710.31;1698048;85;20151;-68
2021/05/17 07:30:49;;;;;;;;;;;;;;;16.24;56.70;94718.73;1698033;85;20206;-67
2021/05/17 07:33:16;;;;;;;;;;;;;;;16.29;55.22;94716.67;1692370;85;20159;-71
2021/05/17 07:35:43;;;;;;;;;;;;;;;16.40;57.86;94711.64;1697859;85;20579;-66
2021/05/17 07:38:09;;;;;;;;;;;;;;;16.49;57.35;94712.06;1698142;85;20179;-69
2021/05/17 07:40:36;;;;;;;;;;;;;;;16.52;55.69;94713.21;1698114;85;20154;-75
2021/05/17 07:43:02;;;;;;;;;;;;;;;16.60;56.00;94703.83;1698089;85;20175;-68
2021/05/17 07:45:29;;;;;;;;;;;;;;;16.69;55.23;94705.61;1698176;85;20223;-66
2021/05/17 07:47:56;;;;;;;;;;;;;;;16.81;56.46;94703.63;1698247;85;20159;-67
2021/05/17 07:50:22;;;;;;;;;;;;;;;16.95;55.58;94694.82;1697925;85;20246;-71
2021/05/17 07:52:49;;;;;;;;;;;;;;;17.05;55.09;94698.66;1698134;85;20182;-73
2021/05/17 07:55:24;;;;;;;;;;;;;;;17.09;54.45;94698.41;1698234;85;20171;-68
2021/05/17 07:57:51;;;;;;;;;;;;;;;17.21;54.90;94698.17;1697572;85;20142;-67
2021/05/17 08:00:18;;;;;;;;;;;;;;;17.30;53.31;94695.42;1698174;85;20158;-67
2021/05/17 08:02:44;;;;;;;;;;;;;;;17.40;56.03;94695.25;1698308;85;20147;-68
2021/05/17 08:05:10;;;;;;;;;;;;;;;17.52;52.63;94685.19;1698166;85;20222;-68
2021/05/17 08:07:37;;;;;;;;;;;;;;;17.67;53.06;94687.41;1698307;85;20489;-68
2021/05/17 08:10:05;;;;;;;;;;;;;;;17.74;53.02;94688.75;1698076;85;20210;-66
2021/05/17 08:12:31;;;;;;;;;;;;;;;17.86;55.90;94688.97;1698065;85;20167;-66
2021/05/17 08:14:58;;;;;;;;;;;;;;;17.99;51.56;94687.25;1698264;85;20234;-67
2021/05/17 08:17:24;;;;;;;;;;;;;;;18.10;53.53;94686.60;1698073;85;20143;-65
2021/05/17 08:19:51;;;;;;;;;;;;;;;18.19;52.07;94692.68;1698198;85;20182;-69
2021/05/17 08:22:17;;;;;;;;;;;;;;;18.27;53.80;94687.73;1698430;85;20150;-68
2021/05/17 08:24:43;;;;;;;;;;;;;;;18.41;53.86;94690.85;1696766;85;20146;-66
2021/05/17 08:27:09;;;;;;;;;;;;;;;18.48;51.98;94688.66;1694757;84;20175;-67
2021/05/17 08:29:37;;;;;;;;;;;;;;;18.36;53.69;94685.80;1694786;85;20139;-66
2021/05/17 08:32:07;;;;;;;;;;;;;;;18.42;54.01;94694.38;1694672;84;20491;-68
2021/05/17 08:34:33;;;;;;;;;;;;;;;18.40;53.25;94689.16;1694923;84;20183;-68
2021/05/17 08:37:00;;;;;;;;;;;;;;;18.35;53.14;94689.44;1694693;85;20166;-67
2021/05/17 08:39:27;;;;;;;;;;;;;;;18.47;53.97;94683.80;1694501;85;20511;-67
2021/05/17 08:41:56;;;;;;;;;;;;;;;18.63;54.30;94684.15;1694596;84;20135;-68
2021/05/17 08:44:23;;;;;;;;;;;;;;;18.78;54.07;94673.34;1694801;85;20150;-71
2021/05/17 08:46:50;;;;;;;;;;;;;;;18.83;51.76;94674.88;1694740;84;20487;-71
2021/05/17 08:49:17;;;;;;;;;;;;;;;18.81;52.29;94672.28;1694887;85;20163;-76
2021/05/17 08:51:44;;;;;;;;;;;;;;;18.99;51.59;94660.37;1694812;85;20230;-75
2021/05/17 08:54:10;;;;;;;;;;;;;;;19.14;50.02;94661.16;1694809;85;20143;-67
2021/05/17 08:56:43;;;;;;;;;;;;;;;19.21;51.87;94658.95;1694975;85;20163;-69
2021/05/17 08:59:11;;;;;;;;;;;;;;;19.27;51.73;94661.68;1694747;85;20207;-71
2021/05/17 09:01:38;;;;;;;;;;;;;;;19.30;49.78;94656.97;1694814;85;20167;-72
2021/05/17 09:04:06;;;;;;;;;;;;;;;19.10;49.91;94661.47;1694714;84;20174;-71
2021/05/17 09:06:41;;;;;;;;;;;;;;;18.81;50.87;94666.94;1694729;85;20155;-71
2021/05/17 09:09:26;;;;;;;;;;;;;;;18.88;51.82;94672.75;1694927;85;20632;-71
2021/05/17 09:11:55;;;;;;;;;;;;;;;19.02;50.45;94668.66;1694170;85;20163;-71
2021/05/17 09:14:22;;;;;;;;;;;;;;;19.10;49.38;94662.34;1694695;85;20150;-71
2021/05/17 09:16:57;;;;;;;;;;;;;;;19.26;46.82;94674.69;1694778;84;20158;-71
2021/05/17 09:19:25;;;;;;;;;;;;;;;19.37;44.13;94660.09;1694690;85;20178;-71
2021/05/17 09:22:01;;;;;;;;;;;;;;;19.53;46.60;94663.91;1694681;85;20503;-71
2021/05/17 09:24:48;;;;;;;;;;;;;;;19.65;47.19;94656.38;1694720;84;20146;-71
2021/05/17 09:27:22;;;;;;;;;;;;;;;19.92;49.13;94659.48;1672887;85;20214;-71
2021/05/17 09:29:54;;;;;;;;;;;;;;;19.96;46.71;94648.91;1694702;85;20503;-70
2021/05/17 09:32:36;;;;;;;;;;;;;;;19.82;41.43;94648.55;1694688;85;20229;-71
2021/05/17 09:35:09;;;;;;;;;;;;;;;19.93;47.71;94641.09;1693995;85;20154;-71
2021/05/17 09:37:49;;;;;;;;;;;;;;;20.12;45.14;94642.85;1694141;85;20182;-71
2021/05/17 09:40:22;;;;;;;;;;;;;;;20.26;46.25;94637.38;1691458;85;20500;-71
2021/05/17 09:43:05;;;;;;;;;;;;;;;20.31;44.19;94632.54;1694520;85;20223;-70
2021/05/17 09:45:33;;;;;;;;;;;;;;;20.39;42.92;94629.80;1694776;85;20491;-71
2021/05/17 09:48:00;;;;;;;;;;;;;;;20.45;42.29;94629.34;1694777;85;20163;-71
2021/05/17 09:50:26;;;;;;;;;;;;;;;20.35;42.94;94625.13;1694606;85;20154;-71
2021/05/17 09:52:52;;;;;;;;;;;;;;;20.59;46.78;94622.52;1694719;84;20167;-71
2021/05/17 09:55:19;;;;;;;;;;;;;;;20.98;45.49;94621.02;1694654;85;20487;-70
2021/05/17 09:57:47;;;;;;;;;;;;;;;21.13;42.38;94619.85;1694529;85;20187;-71
2021/05/17 10:00:19;;;;;;;;;;;;;;;21.28;43.97;94614.66;1694673;85;20540;-71
2021/05/17 10:02:48;;;;;;;;;;;;;;;21.19;39.48;94622.05;1694595;84;20159;-71
2021/05/17 10:05:26;;;;;;;;;;;;;;;21.33;42.95;94605.77;1694524;85;20154;-71
2021/05/17 10:07:58;;;;;;;;;;;;;;;21.42;39.65;94606.95;1694714;84;20540;-71
2021/05/17 10:10:27;;;;;;;;;;;;;;;21.55;41.07;94600.98;1693908;85;20167;-71
2021/05/17 10:12:56;;;;;;;;;;;;;;;21.49;41.04;94601.94;1694440;85;20495;-71
2021/05/17 10:15:24;;;;;;;;;;;;;;;21.59;42.99;94604.27;1694698;85;20166;-71
2021/05/17 10:17:51;;;;;;;;;;;;;;;21.70;42.19;94601.62;1694624;85;20146;-71
2021/05/17 10:20:21;;;;;;;;;;;;;;;21.71;41.36;94597.95;1694851;85;20178;-71
2021/05/17 10:22:52;;;;;;;;;;;;;;;21.59;41.47;94593.53;1694796;84;20194;-71
2021/05/17 10:25:27;;;;;;;;;;;;;;;21.72;41.91;94588.06;1694598;84;20186;-71
2021/05/17 10:27:57;;;;;;;;;;;;;;;21.67;40.20;94591.59;1694596;85;20171;-71
2021/05/17 10:30:31;;;;;;;;;;;;;;;21.66;38.93;94592.58;1694133;85;20166;-71
2021/05/17 10:33:06;;;;;;;;;;;;;;;21.56;37.32;94594.63;1694770;85;20146;-71
2021/05/17 10:35:44;;;;;;;;;;;;;;;21.38;38.49;94588.86;1694763;85;20150;-71
2021/05/17 10:38:25;;;;;;;;;;;;;;;21.36;36.99;94586.75;1694558;85;20158;-72
2021/05/17 10:40:58;;;;;;;;;;;;;;;21.39;39.53;94586.56;1694753;85;20162;-71
2021/05/17 10:46:38;;;;;;;;;;;;;;;21.33;41.88;94587.48;1694672;85;20142;-71
2021/05/17 10:49:31;;;;;;;;;;;;;;;21.07;39.11;94580.10;1694743;85;20150;-71
2021/05/17 10:52:09;;;;;;;;;;;;;;;20.90;39.58;94577.34;1694781;85;20213;-71
2021/05/17 10:54:38;;;;;;;;;;;;;;;20.72;41.44;94572.39;1694718;85;20154;-71
2021/05/17 10:57:28;;;;;;;;;;;;;;;20.57;41.27;94565.98;1672613;85;20182;-71
2021/05/17 11:02:45;;;;;;;;;;;;;;;20.31;45.43;94566.06;1694854;85;20163;-71
2021/05/17 11:05:17;;;;;;;;;;;;;;;20.15;42.96;94571.66;1694711;85;20507;-70
2021/05/17 11:07:54;;;;;;;;;;;;;;;19.95;43.25;94563.72;1694751;85;20162;-71
2021/05/17 11:10:26;;;;;;;;;;;;;;;19.82;44.43;94577.13;1694625;85;20166;-71
2021/05/17 11:13:05;;;;;;;;;;;;;;;19.65;45.32;94565.39;1694545;84;20242;-71
2021/05/17 11:15:56;;;;;;;;;;;;;;;19.46;42.40;94569.36;1694752;84;20180;-71
2021/05/17 11:18:33;;;;;;;;;;;;;;;19.35;43.18;94568.39;1694708;85;20135;-71
2021/05/17 11:21:06;;;;;;;;;;;;;;;19.33;43.18;94562.31;1694646;85;20174;-71
2021/05/17 11:23:38;;;;;;;;;;;;;;;19.38;44.28;94566.37;1694708;85;20214;-71
2021/05/17 11:26:20;;;;;;;;;;;;;;;19.44;43.20;94562.41;1694653;84;20222;-71
2021/05/17 11:28:50;;;;;;;;;;;;;;;19.37;42.45;94561.97;1694797;84;20238;-71
2021/05/17 11:31:22;;;;;;;;;;;;;;;19.39;43.20;94561.88;1694766;85;20476;-71
2021/05/17 11:34:01;;;;;;;;;;;;;;;19.21;42.20;94559.52;1694556;85;20178;-71
2021/05/17 11:36:43;;;;;;;;;;;;;;;19.22;43.15;94561.70;1694778;84;20178;-70
2021/05/17 11:39:16;;;;;;;;;;;;;;;19.21;42.23;94560.00;1694671;85;20253;-71
2021/05/17 11:41:56;;;;;;;;;;;;;;;19.17;41.87;94553.14;1694591;84;20146;-71
2021/05/17 11:44:27;;;;;;;;;;;;;;;19.17;42.53;94555.33;1694583;85;20162;-71
2021/05/17 11:47:07;;;;;;;;;;;;;;;19.12;45.09;94555.27;1694724;85;20154;-71
2021/05/17 11:49:36;;;;;;;;;;;;;;;19.19;46.47;94552.56;1694529;85;20512;-70
2021/05/17 11:52:05;;;;;;;;;;;;;;;19.20;44.87;94545.78;1694723;84;20155;-71
2021/05/17 11:54:37;;;;;;;;;;;;;;;19.24;45.84;94541.06;1694787;85;20487;-71
2021/05/17 11:57:04;;;;;;;;;;;;;;;19.24;45.40;94549.09;1694777;85;20179;-71
2021/05/17 11:59:31;;;;;;;;;;;;;;;19.20;46.07;94555.14;1694811;85;20194;-71
2021/05/17 12:02:01;;;;;;;;;;;;;;;19.19;45.69;94551.22;1694806;85;20163;-71
2021/05/17 12:04:35;;;;;;;;;;;;;;;19.10;45.24;94551.39;1694863;85;20159;-71
2021/05/17 12:07:10;;;;;;;;;;;;;;;19.14;45.25;94549.34;1694772;85;20150;-71
2021/05/17 12:09:46;;;;;;;;;;;;;;;19.17;45.64;94545.12;1694855;85;20146;-71
2021/05/17 12:12:17;;;;;;;;;;;;;;;19.14;45.05;94549.34;1694976;85;20158;-71
2021/05/17 12:14:48;;;;;;;;;;;;;;;19.14;47.55;94549.34;1694627;85;20206;-71
2021/05/17 12:17:27;;;;;;;;;;;;;;;19.09;46.20;94548.32;1694775;85;20495;-71
2021/05/17 12:19:56;;;;;;;;;;;;;;;19.01;44.25;94546.66;1694970;85;20158;-71
2021/05/17 12:22:27;;;;;;;;;;;;;;;18.97;43.79;94550.00;1694385;85;20210;-69
2021/05/17 12:24:58;;;;;;;;;;;;;;;19.03;43.95;94550.09;1694308;84;20149;-70
2021/05/17 12:27:25;;;;;;;;;;;;;;;19.21;44.34;94542.62;1684984;85;20147;-71
2021/05/17 12:29:55;;;;;;;;;;;;;;;19.76;41.11;94534.75;1684858;85;20166;-71
2021/05/17 12:32:24;;;;;;;;;;;;;;;20.25;44.55;94536.53;1684498;85;20218;-71
2021/05/17 12:34:57;;;;;;;;;;;;;;;20.87;42.99;94529.32;1684953;85;20163;-71
2021/05/17 12:37:30;;;;;;;;;;;;;;;21.51;39.05;94531.06;1684849;85;20227;-71
2021/05/17 12:40:17;;;;;;;;;;;;;;;21.90;39.60;94521.30;1684987;85;20235;-71
2021/05/17 12:42:44;;;;;;;;;;;;;;;21.99;41.40;94520.08;1683208;85;20175;-71
2021/05/17 12:45:13;;;;;;;;;;;;;;;22.14;38.73;94515.79;1657239;85;20515;-71
2021/05/17 12:47:41;;;;;;;;;;;;;;;22.02;35.44;94520.31;1685069;85;20195;-71
2021/05/17 12:50:20;;;;;;;;;;;;;;;21.90;35.58;94513.23;1685004;85;20166;-71
2021/05/17 12:52:48;;;;;;;;;;;;;;;21.62;35.78;94504.73;1684350;85;20484;-71
2021/05/17 12:55:23;;;;;;;;;;;;;;;21.65;36.73;94503.64;1685007;85;20211;-71
2021/05/17 12:57:56;;;;;;;;;;;;;;;21.73;35.36;94502.53;1684844;85;20179;-71
2021/05/17 13:00:46;;;;;;;;;;;;;;;21.79;36.30;94502.88;1684300;85;20147;-71
2021/05/17 13:03:16;;;;;;;;;;;;;;;21.67;33.16;94500.32;1684839;85;20512;-70
2021/05/17 13:06:18;;;;;;;;;;;;;;;21.64;34.25;94508.63;1684920;85;20210;-71
2021/05/17 13:08:50;;;;;;;;;;;;;;;21.57;35.54;94504.22;1684986;85;20496;-71
2021/05/17 13:11:29;;;;;;;;;;;;;;;21.59;33.58;94499.59;1684988;85;20171;-71
2021/05/17 13:14:23;;;;;;;;;;;;;;;21.50;36.66;94501.19;1684914;85;20163;-71
2021/05/17 13:16:54;;;;;;;;;;;;;;;21.61;37.23;94494.46;1684919;85;20143;-71
2021/05/17 13:20:11;;;;;;;;;;;;;;;21.60;37.74;94498.63;1684901;85;20155;-71
2021/05/17 13:30:51;;;;;;;;;;;;;;;21.28;36.38;94500.64;1679726;84;20518;-71
2021/05/17 13:33:36;;;;;;;;;;;;;;;21.01;36.65;94495.58;1708107;84;20210;-71
2021/05/17 13:36:08;;;;;;;;;;;;;;;20.85;38.42;94503.11;1680452;84;20189;-71
2021/05/17 13:38:40;;;;;;;;;;;;;;;20.69;38.47;94498.91;1708083;84;20157;-71
2021/05/17 13:41:08;;;;;;;;;;;;;;;20.60;39.40;94498.75;1708081;84;20166;-71
2021/05/17 13:43:35;;;;;;;;;;;;;;;20.41;40.09;94500.57;1708065;84;20238;-71
2021/05/17 13:46:02;;;;;;;;;;;;;;;20.32;39.85;94497.62;1707992;84;20162;-71